Time;durP1;ratioP1;P1;durP2;ratioP2;P2;SDS_P1;SDS_P2;PMS_P1;PMS_P2;Temp;Humidity;BMP_temperature;BMP_pressure;BME280_temperature;BME280_humidity;BME280_pressure;Samples;Min_cycle;Max_cycle;Signal;HPM_P1;HPM_P2
2021/03/14 00:02:14;;;;;;;8.97;4.90;;;;;;;6.26;81.16;98747.88;20849827;28;20711;-57
2021/03/14 00:12:15;;;;;;;3.70;2.40;;;;;;;5.98;83.11;98744.53;20858841;28;20232;-56
2021/03/14 00:22:15;;;;;;;2.60;1.77;;;;;;;5.44;83.73;98685.69;20876847;28;20215;-61
2021/03/14 00:32:18;;;;;;;3.43;1.80;;;;;;;5.50;85.71;98737.34;20850692;28;20234;-56
2021/03/14 00:42:18;;;;;;;2.23;1.77;;;;;;;5.25;87.16;98757.53;20856020;28;20225;-61
2021/03/14 00:52:19;;;;;;;2.80;1.80;;;;;;;5.23;88.93;98755.94;20858815;28;20224;-57
2021/03/14 01:02:19;;;;;;;3.30;2.30;;;;;;;5.63;88.51;98762.00;20849713;28;20215;-57
2021/03/14 01:12:20;;;;;;;2.67;2.00;;;;;;;5.90;87.19;98746.91;20845363;28;20735;-57
2021/03/14 01:22:20;;;;;;;2.87;1.90;;;;;;;5.83;86.45;98750.88;20856052;28;20231;-57
2021/03/14 01:32:20;;;;;;;2.30;1.50;;;;;;;5.33;88.51;98746.41;20860255;28;20231;-57
2021/03/14 01:42:31;;;;;;;1.67;1.47;;;;;;;4.97;90.06;98731.22;20867732;28;20883;-58
2021/03/14 01:52:33;;;;;;;1.87;1.60;;;;;;;4.71;91.07;98720.59;20882256;28;20224;-57
2021/03/14 02:02:34;;;;;;;2.10;1.90;;;;;;;4.47;91.95;98718.75;20823033;28;20291;-57
2021/03/14 02:12:43;;;;;;;2.70;2.03;;;;;;;4.22;94.52;98730.03;20866909;28;20220;-57
2021/03/14 02:22:48;;;;;;;3.33;1.97;;;;;;;4.07;95.15;98717.81;20890396;28;20225;-57
2021/03/14 02:32:49;;;;;;;2.97;2.07;;;;;;;3.89;95.58;98714.50;20845350;28;20256;-57
2021/03/14 02:42:50;;;;;;;4.30;2.07;;;;;;;3.69;95.93;98731.59;20872850;28;20238;-57
2021/03/14 02:52:51;;;;;;;2.03;1.83;;;;;;;3.52;96.85;98723.84;20865563;28;20829;-56
2021/03/14 03:02:55;;;;;;;3.17;1.60;;;;;;;3.43;97.26;98735.81;20866316;28;20699;-57
2021/03/14 03:12:58;;;;;;;4.83;2.43;;;;;;;3.40;97.90;98750.97;20876678;28;20235;-56
2021/03/14 03:23:01;;;;;;;2.33;1.70;;;;;;;3.42;97.28;98760.47;20851343;28;20905;-57
2021/03/14 03:33:02;;;;;;;5.13;2.20;;;;;;;3.55;96.75;98773.78;20847346;28;20235;-57
2021/03/14 03:43:15;;;;;;;2.43;1.63;;;;;;;3.53;96.17;98775.66;20855160;28;20282;-56
2021/03/14 03:53:17;;;;;;;2.00;1.77;;;;;;;3.49;96.14;98788.19;20861781;28;20227;-56
2021/03/14 04:03:18;;;;;;;3.60;1.80;;;;;;;3.40;95.87;98783.44;20850789;28;20219;-57
2021/03/14 04:13:21;;;;;;;2.47;1.70;;;;;;;3.41;95.93;98784.31;20872116;28;20220;-57
2021/03/14 04:23:23;;;;;;;2.87;1.90;;;;;;;3.34;95.21;98761.91;20816697;28;20294;-57
2021/03/14 04:33:23;;;;;;;4.20;2.27;;;;;;;3.59;94.44;98777.94;20831795;28;20236;-56
2021/03/14 04:43:25;;;;;;;2.17;1.77;;;;;;;3.50;94.01;98771.41;20824173;28;20223;-57
2021/03/14 04:53:27;;;;;;;2.53;1.70;;;;;;;3.40;94.56;98777.31;20842787;28;20235;-56
2021/03/14 05:03:28;;;;;;;4.00;1.80;;;;;;;3.24;95.42;98765.09;20869336;28;20280;-57
2021/03/14 05:13:29;;;;;;;1.60;1.50;;;;;;;3.26;95.20;98764.97;20858964;28;20377;-56
2021/03/14 05:23:33;;;;;;;3.33;2.03;;;;;;;3.33;95.33;98773.38;20864670;28;20413;-57
2021/03/14 05:33:34;;;;;;;4.10;2.00;;;;;;;3.31;94.66;98748.88;20873565;28;20797;-57
2021/03/14 05:43:36;;;;;;;3.47;2.00;;;;;;;3.44;94.58;98760.41;20886838;28;20235;-56
2021/03/14 05:53:44;;;;;;;2.10;1.70;;;;;;;3.57;94.66;98778.03;20822048;28;20939;-63
2021/03/14 06:03:45;;;;;;;2.20;2.00;;;;;;;3.80;94.04;98786.31;20873834;28;20227;-56
2021/03/14 06:13:46;;;;;;;2.93;2.10;;;;;;;4.00;93.25;98801.78;20826902;28;21482;-57
2021/03/14 06:24:00;;;;;;;4.80;2.10;;;;;;;4.38;92.09;98778.25;20848122;28;20927;-57
2021/03/14 06:34:09;;;;;;;3.20;2.03;;;;;;;4.81;90.77;98775.50;20877394;28;20238;-56
2021/03/14 06:44:21;;;;;;;3.83;2.43;;;;;;;4.85;86.97;98737.34;20843898;28;20233;-57
2021/03/14 06:54:40;;;;;;;2.73;2.50;;;;;;;5.27;84.95;98800.59;20879550;28;20361;-57
2021/03/14 07:04:58;;;;;;;5.10;2.50;;;;;;;5.53;84.84;98805.91;20829462;28;20234;-57
2021/03/14 07:15:20;;;;;;;5.00;3.20;;;;;;;5.89;81.29;98797.28;20853208;28;20230;-60
2021/03/14 07:25:22;;;;;;;4.17;2.67;;;;;;;5.98;82.77;98802.78;20860935;28;20211;-60
2021/03/14 07:35:23;;;;;;;3.77;2.40;;;;;;;6.31;81.98;98818.09;20882069;28;20700;-58
2021/03/14 07:45:24;;;;;;;3.73;2.37;;;;;;;6.69;81.31;98801.25;20871801;28;20220;-58
2021/03/14 07:55:24;;;;;;;3.60;2.70;;;;;;;7.16;80.17;98818.97;20879456;28;20234;-57
2021/03/14 08:05:40;;;;;;;2.45;2.00;;;;;;;7.44;75.22;98813.31;20845026;28;20224;-56
2021/03/14 08:15:41;;;;;;;3.13;2.40;;;;;;;7.76;76.44;98792.25;20871359;28;20313;-56
2021/03/14 08:25:48;;;;;;;3.30;2.43;;;;;;;8.18;72.97;98797.88;20866726;28;20219;-56
2021/03/14 08:36:09;;;;;;;4.57;2.40;;;;;;;8.61;66.83;98792.66;20850731;28;20611;-57
2021/03/14 08:46:16;;;;;;;3.83;2.20;;;;;;;8.58;68.31;98782.25;20883867;28;20224;-56
2021/03/14 08:56:23;;;;;;;3.63;1.77;;;;;;;8.86;64.26;98800.34;20863000;28;20279;-69
2021/03/14 09:06:30;;;;;;;4.80;2.03;;;;;;;9.15;61.19;98821.91;20881395;28;20830;-56
2021/03/14 09:25:11;;;;;;;3.40;2.33;;;;;;;9.55;62.08;98856.69;20527612;27;7780627;-69
2021/03/14 09:35:28;;;;;;;3.77;2.03;;;;;;;9.96;58.62;98855.06;20784238;28;20228;-57
2021/03/14 09:45:28;;;;;;;2.27;1.83;;;;;;;9.38;59.21;98881.22;20776672;28;20689;-71
2021/03/14 09:55:30;;;;;;;2.50;1.80;;;;;;;9.09;62.35;98906.69;20789690;28;20242;-67
2021/03/14 10:05:41;;;;;;;4.17;2.10;;;;;;;9.62;58.84;98873.03;20766170;28;20220;-65
2021/03/14 10:15:41;;;;;;;2.77;1.50;;;;;;;10.09;58.79;98896.53;20786121;28;20239;-57
2021/03/14 10:25:42;;;;;;;4.10;2.00;;;;;;;10.05;59.40;98896.91;20738882;28;20223;-60
2021/03/14 10:45:52;;;;;;;4.27;2.33;;;;;;;9.09;60.81;98922.66;20438061;27;7729607;-55
2021/03/14 10:57:22;;;;;;;3.73;2.47;;;;;;;9.31;61.29;98944.75;20568279;27;7764309;-62
2021/03/14 11:17:36;;;;;;;4.57;2.50;;;;;;;8.49;64.21;98982.38;20426266;27;7774162;-59
2021/03/14 11:37:44;;;;;;;3.67;2.27;;;;;;;8.77;62.60;98976.63;20563842;27;7903861;-65
2021/03/14 11:57:53;;;;;;;3.37;2.70;;;;;;;10.23;60.50;98943.38;20567943;27;8048424;-60
2021/03/14 12:07:53;;;;;;;2.70;2.20;;;;;;;10.55;60.08;98937.09;20867337;28;20223;-58
2021/03/14 12:17:54;;;;;;;3.63;2.20;;;;;;;9.82;59.55;98970.75;20851263;28;20234;-57
2021/03/14 12:27:54;;;;;;;3.70;2.70;;;;;;;8.74;63.12;98992.81;20868645;28;20273;-57
2021/03/14 12:37:55;;;;;;;4.73;3.40;;;;;;;7.64;72.98;99047.22;20833882;28;20254;-62
2021/03/14 12:47:55;;;;;;;3.63;3.33;;;;;;;7.83;73.19;99021.88;20781496;28;20219;-60
2021/03/14 12:57:56;;;;;;;3.40;3.00;;;;;;;7.09;76.13;99014.88;20861595;28;20226;-63
2021/03/14 13:07:56;;;;;;;3.43;3.00;;;;;;;7.11;76.61;99059.88;20806006;28;20315;-58
2021/03/14 13:17:57;;;;;;;3.63;3.27;;;;;;;7.69;76.31;99045.06;20812163;28;20715;-61
2021/03/14 13:27:58;;;;;;;3.93;3.17;;;;;;;8.00;74.55;99065.75;20862002;28;20215;-60
2021/03/14 13:37:58;;;;;;;5.30;4.13;;;;;;;8.17;73.56;99068.03;20889128;28;20464;-59
2021/03/14 13:47:59;;;;;;;4.87;4.03;;;;;;;8.48;74.58;99092.34;20867669;28;20286;-58
2021/03/14 13:57:59;;;;;;;4.23;3.77;;;;;;;8.11;74.26;99089.72;20938114;28;20272;-65
2021/03/14 14:18:08;;;;;;;19.30;9.50;;;;;;;8.40;75.92;99116.00;20442643;27;10585723;-58
2021/03/14 14:28:10;;;;;;;3.10;2.90;;;;;;;8.01;73.17;99098.50;20780933;28;20723;-58
2021/03/14 14:38:10;;;;;;;38.50;15.97;;;;;;;8.21;75.65;99111.19;20776317;28;20933;-63
2021/03/14 14:48:12;;;;;;;8.73;5.93;;;;;;;8.10;74.53;99125.22;20788600;28;20227;-58
2021/03/14 14:58:12;;;;;;;11.00;7.57;;;;;;;7.87;75.69;99149.94;20823555;28;20539;-57
2021/03/14 15:08:13;;;;;;;7.00;5.50;;;;;;;7.56;77.90;99162.75;20869218;28;20238;-57
2021/03/14 15:18:13;;;;;;;7.10;5.28;;;;;;;7.52;78.97;99174.53;20960337;28;20448;-57
2021/03/14 15:28:14;;;;;;;3.30;3.00;;;;;;;7.21;78.49;99165.22;20888758;28;20222;-66
2021/03/14 15:38:15;;;;;;;3.23;2.90;;;;;;;7.10;78.66;99188.13;20810318;28;20221;-62
2021/03/14 15:58:23;;;;;;;3.47;2.93;;;;;;;6.73;80.86;99203.88;20615272;27;7722226;-63
2021/03/14 16:08:23;;;;;;;3.20;2.90;;;;;;;6.65;79.64;99235.31;20837907;28;20331;-59
2021/03/14 16:18:24;;;;;;;4.10;3.70;;;;;;;6.31;80.09;99231.34;20813143;28;20236;-58
2021/03/14 16:28:24;;;;;;;4.50;3.87;;;;;;;5.85;82.93;99241.31;20809293;28;20219;-58
2021/03/14 16:38:28;;;;;;;11.77;8.90;;;;;;;5.52;86.39;99246.06;20805198;28;20226;-58
2021/03/14 16:48:29;;;;;;;5.67;4.57;;;;;;;5.27;88.20;99260.75;20814053;28;20905;-57
2021/03/14 16:58:36;;;;;;;6.37;5.00;;;;;;;5.30;88.62;99284.38;20879438;28;20238;-58
2021/03/14 17:08:36;;;;;;;9.37;6.43;;;;;;;5.46;89.32;99296.69;20847076;28;20227;-62
2021/03/14 17:18:37;;;;;;;4.33;3.90;;;;;;;5.29;89.02;99322.34;20817105;28;20706;-58
2021/03/14 17:28:37;;;;;;;5.97;4.13;;;;;;;4.87;91.50;99319.53;20813587;28;20224;-58
2021/03/14 17:48:50;;;;;;;18.45;12.15;;;;;;;4.71;93.95;99338.03;20627058;27;7907112;-58
2021/03/14 17:58:50;;;;;;;7.83;6.23;;;;;;;4.67;91.83;99300.38;20883791;28;20408;-58
2021/03/14 18:08:51;;;;;;;5.27;4.77;;;;;;;5.14;90.74;99360.25;20893010;28;20226;-59
2021/03/14 18:18:51;;;;;;;6.95;5.28;;;;;;;5.24;90.00;99365.88;20897645;28;20937;-59
2021/03/14 18:28:52;;;;;;;9.90;6.37;;;;;;;5.26;89.85;99380.72;20872714;28;20235;-58
2021/03/14 18:38:52;;;;;;;13.90;9.00;;;;;;;5.21;90.65;99380.09;20898731;28;20990;-59
2021/03/14 18:48:53;;;;;;;8.07;7.28;;;;;;;5.07;94.21;99395.94;20956825;28;20230;-61
2021/03/14 19:19:01;;;;;;;12.93;8.73;;;;;;;4.56;98.12;99411.09;20427995;27;9393818;-58
2021/03/14 19:39:11;;;;;;;13.97;10.23;;;;;;;3.80;100.00;99457.34;20428580;27;8359471;-57
2021/03/14 19:49:12;;;;;;;17.10;13.17;;;;;;;3.43;100.00;99446.91;20751898;28;20262;-58
2021/03/14 19:59:13;;;;;;;13.93;10.40;;;;;;;3.40;100.00;99462.88;20739429;28;21007;-58
2021/03/14 20:19:22;;;;;;;13.07;9.60;;;;;;;3.32;100.00;99480.84;20510218;27;7761621;-58
2021/03/14 20:29:30;;;;;;;10.07;8.43;;;;;;;3.48;100.00;99492.38;20801334;28;20699;-64
2021/03/14 20:39:30;;;;;;;8.87;7.90;;;;;;;3.61;100.00;99509.31;20771727;28;20227;-63
2021/03/14 20:49:31;;;;;;;12.88;9.60;;;;;;;3.82;100.00;99518.81;20789637;28;20707;-63
2021/03/14 21:09:38;;;;;;;8.27;6.63;;;;;;;4.09;99.90;99526.28;20849805;27;7701463;-58
2021/03/14 21:19:39;;;;;;;8.07;5.83;;;;;;;4.15;99.24;99528.59;21096223;28;20927;-60
2021/03/14 22:09:36;;;;;;;18.03;10.57;;;;;;;3.68;97.78;99547.66;20587798;27;7821077;-65
2021/03/14 22:19:38;;;;;;;8.07;5.77;;;;;;;3.37;98.91;99557.97;20873273;28;20229;-66
2021/03/14 23:29:37;;;;;;;12.03;7.63;;;;;;;2.68;100.00;99549.69;20707205;27;7611613;-63
